EZY21EG EGKK-LFMN
Flight info
| Callsign | EZY21EG |
|---|---|
| Flight time | 1h 29m |
| Altitude | 31000 |
| Route | BOGNA1X BOGNA L612 XAMAB/N0457F330 UL612 VEULE DCT KOTAP DCT KETEX DCT KOTIS DCT KUKOR DCT UTUVA DCT LERGA DCT LIQID DCT LATAM DCT TUNUR DCT NISAR NISAR7R |
| Aircraft | A32N/M-V/N |
Departure
| Time | 2026-04-16 09:23 |
|---|---|
| Airport | London Gatwick Airport (EGKK) |
Arrival
| Time | 2026-04-16 10:53 |
|---|---|
| Airport | Nice-Côte d'Azur Airport (LFMN) |
| Time | Latitude | Longitude | Altitude | Speed | Heading |
|---|---|---|---|---|---|
| 2026-04-16 08:55 | 51.15505 | -0.16846 | 213 ft | 0 kts | 348° |
| 2026-04-16 09:16 | 51.15502 | -0.16845 | 211 ft | 2 kts | 348° |
| 2026-04-16 09:16 | 51.15487 | -0.16840 | 204 ft | 2 kts | 349° |
| 2026-04-16 09:17 | 51.15468 | -0.16838 | 204 ft | 3 kts | 16° |
| 2026-04-16 09:17 | 51.15452 | -0.16851 | 211 ft | 3 kts | 56° |
| 2026-04-16 09:17 | 51.15443 | -0.16879 | 208 ft | 2 kts | 76° |
| 2026-04-16 09:17 | 51.15441 | -0.16893 | 207 ft | 1 kts | 78° |
| 2026-04-16 09:18 | 51.15441 | -0.16895 | 206 ft | 0 kts | 78° |
| 2026-04-16 09:20 | 51.15449 | -0.16833 | 212 ft | 10 kts | 78° |
| 2026-04-16 09:21 | 51.15430 | -0.16725 | 211 ft | 11 kts | 158° |
| 2026-04-16 09:21 | 51.15350 | -0.16696 | 205 ft | 12 kts | 164° |
| 2026-04-16 09:21 | 51.15262 | -0.16660 | 207 ft | 8 kts | 168° |
| 2026-04-16 09:21 | 51.15198 | -0.16638 | 209 ft | 12 kts | 169° |
| 2026-04-16 09:22 | 51.15134 | -0.16724 | 208 ft | 17 kts | 257° |
| 2026-04-16 09:22 | 51.15054 | -0.17247 | 218 ft | 80 kts | 257° |
| 2026-04-16 09:22 | 51.14908 | -0.18286 | 211 ft | 125 kts | 258° |
| 2026-04-16 09:22 | 51.14774 | -0.19291 | 208 ft | 149 kts | 257° |
| 2026-04-16 09:23 | 51.14528 | -0.21222 | 731 ft | 153 kts | 256° |
| 2026-04-16 09:23 | 51.14319 | -0.22910 | 1193 ft | 160 kts | 257° |
| 2026-04-16 09:23 | 51.14113 | -0.24696 | 1650 ft | 172 kts | 259° |
| 2026-04-16 09:23 | 51.13900 | -0.26702 | 2030 ft | 191 kts | 259° |
| 2026-04-16 09:24 | 51.13667 | -0.28818 | 2476 ft | 211 kts | 258° |
| 2026-04-16 09:24 | 51.13381 | -0.31358 | 2774 ft | 245 kts | 257° |
| 2026-04-16 09:24 | 51.12948 | -0.34059 | 3330 ft | 265 kts | 254° |
| 2026-04-16 09:24 | 51.12487 | -0.36737 | 3458 ft | 294 kts | 254° |
| 2026-04-16 09:25 | 51.11793 | -0.39829 | 4259 ft | 295 kts | 239° |
| 2026-04-16 09:25 | 51.10488 | -0.42291 | 4541 ft | 286 kts | 218° |
| 2026-04-16 09:25 | 51.08743 | -0.43553 | 4599 ft | 272 kts | 192° |
| 2026-04-16 09:25 | 51.06897 | -0.43381 | 4894 ft | 266 kts | 169° |
| 2026-04-16 09:26 | 51.05118 | -0.42526 | 5358 ft | 266 kts | 167° |
| 2026-04-16 09:26 | 51.03360 | -0.41755 | 6263 ft | 264 kts | 171° |
| 2026-04-16 09:26 | 51.01526 | -0.41185 | 7143 ft | 268 kts | 175° |
| 2026-04-16 09:26 | 50.99693 | -0.40803 | 7991 ft | 270 kts | 178° |
| 2026-04-16 09:27 | 50.97810 | -0.40517 | 8853 ft | 274 kts | 179° |
| 2026-04-16 09:27 | 50.95894 | -0.40273 | 9699 ft | 278 kts | 180° |
| 2026-04-16 09:27 | 50.93927 | -0.40033 | 10511 ft | 282 kts | 180° |
| 2026-04-16 09:27 | 50.91978 | -0.39796 | 11262 ft | 287 kts | 180° |
| 2026-04-16 09:28 | 50.89974 | -0.39548 | 12006 ft | 292 kts | 180° |
| 2026-04-16 09:28 | 50.87937 | -0.39293 | 12756 ft | 296 kts | 180° |
| 2026-04-16 09:28 | 50.85867 | -0.39033 | 13499 ft | 301 kts | 180° |
| 2026-04-16 09:28 | 50.83799 | -0.38518 | 14197 ft | 310 kts | 168° |
| 2026-04-16 09:29 | 50.81788 | -0.37189 | 14867 ft | 319 kts | 154° |
| 2026-04-16 09:29 | 50.79912 | -0.35249 | 15518 ft | 324 kts | 151° |
| 2026-04-16 09:29 | 50.78024 | -0.33262 | 16162 ft | 328 kts | 151° |
| 2026-04-16 09:29 | 50.76111 | -0.31266 | 16828 ft | 331 kts | 152° |
| 2026-04-16 09:30 | 50.74177 | -0.29259 | 17485 ft | 334 kts | 152° |
| 2026-04-16 09:30 | 50.72222 | -0.27237 | 18149 ft | 338 kts | 152° |
| 2026-04-16 09:30 | 50.70247 | -0.25198 | 18748 ft | 341 kts | 152° |
| 2026-04-16 09:30 | 50.68234 | -0.23111 | 19065 ft | 354 kts | 152° |
| 2026-04-16 09:31 | 50.66126 | -0.20906 | 19218 ft | 371 kts | 151° |
| 2026-04-16 09:31 | 50.63931 | -0.18602 | 19348 ft | 387 kts | 151° |
| 2026-04-16 09:31 | 50.61657 | -0.16213 | 19605 ft | 398 kts | 151° |
| 2026-04-16 09:31 | 50.59338 | -0.13774 | 20124 ft | 402 kts | 151° |
| 2026-04-16 09:32 | 50.57008 | -0.11329 | 20643 ft | 405 kts | 151° |
| 2026-04-16 09:32 | 50.55448 | -0.09695 | 20985 ft | 408 kts | 151° |
| 2026-04-16 09:32 | 50.53069 | -0.07211 | 21502 ft | 411 kts | 151° |
| 2026-04-16 09:32 | 50.49895 | -0.03903 | 22165 ft | 416 kts | 151° |
| 2026-04-16 09:33 | 50.48260 | -0.02202 | 22505 ft | 418 kts | 151° |
| 2026-04-16 09:33 | 50.45825 | 0.00328 | 23008 ft | 421 kts | 152° |
| 2026-04-16 09:33 | 50.43376 | 0.02870 | 23506 ft | 425 kts | 152° |
| 2026-04-16 09:33 | 50.40898 | 0.05437 | 23942 ft | 428 kts | 152° |
| 2026-04-16 09:34 | 50.38402 | 0.08019 | 24339 ft | 431 kts | 152° |
| 2026-04-16 09:34 | 50.35920 | 0.10584 | 24725 ft | 435 kts | 152° |
| 2026-04-16 09:34 | 50.33385 | 0.13197 | 25114 ft | 438 kts | 152° |
| 2026-04-16 09:34 | 50.30830 | 0.15827 | 25496 ft | 441 kts | 152° |
| 2026-04-16 09:35 | 50.28256 | 0.18473 | 25880 ft | 444 kts | 152° |
| 2026-04-16 09:35 | 50.25663 | 0.21135 | 26246 ft | 447 kts | 152° |
| 2026-04-16 09:35 | 50.23052 | 0.23812 | 26609 ft | 450 kts | 152° |
| 2026-04-16 09:35 | 50.20422 | 0.26505 | 26960 ft | 453 kts | 152° |
| 2026-04-16 09:36 | 50.17775 | 0.29219 | 27260 ft | 457 kts | 152° |
| 2026-04-16 09:36 | 50.15110 | 0.31959 | 27588 ft | 460 kts | 152° |
| 2026-04-16 09:36 | 50.12424 | 0.34722 | 27931 ft | 463 kts | 152° |
| 2026-04-16 09:36 | 50.09732 | 0.37486 | 28266 ft | 466 kts | 152° |
| 2026-04-16 09:37 | 50.07017 | 0.40268 | 28558 ft | 468 kts | 152° |
| 2026-04-16 09:37 | 50.04285 | 0.43063 | 28855 ft | 471 kts | 152° |
| 2026-04-16 09:37 | 50.01537 | 0.45870 | 29151 ft | 474 kts | 152° |
| 2026-04-16 09:37 | 49.98778 | 0.48684 | 29477 ft | 475 kts | 152° |
| 2026-04-16 09:38 | 49.96004 | 0.51507 | 29716 ft | 478 kts | 152° |
| 2026-04-16 09:38 | 49.93214 | 0.54343 | 29995 ft | 480 kts | 152° |
| 2026-04-16 09:38 | 49.90410 | 0.57190 | 30276 ft | 483 kts | 152° |
| 2026-04-16 09:38 | 49.87591 | 0.60049 | 30532 ft | 485 kts | 152° |
| 2026-04-16 09:39 | 49.84767 | 0.62915 | 30768 ft | 488 kts | 151° |
| 2026-04-16 09:39 | 49.81963 | 0.65935 | 31005 ft | 492 kts | 149° |
| 2026-04-16 09:39 | 49.79186 | 0.69052 | 31173 ft | 494 kts | 149° |
| 2026-04-16 09:40 | 49.73634 | 0.75295 | 31217 ft | 493 kts | 149° |
| 2026-04-16 09:40 | 49.68070 | 0.81462 | 31236 ft | 492 kts | 149° |
| 2026-04-16 09:41 | 49.62492 | 0.87595 | 31237 ft | 492 kts | 149° |
| 2026-04-16 09:41 | 49.56948 | 0.93668 | 31234 ft | 491 kts | 149° |
| 2026-04-16 09:42 | 49.51377 | 0.99756 | 31212 ft | 492 kts | 149° |
| 2026-04-16 09:42 | 49.45795 | 1.05836 | 31242 ft | 492 kts | 149° |
| 2026-04-16 09:43 | 49.40205 | 1.11912 | 31240 ft | 492 kts | 149° |
| 2026-04-16 09:43 | 49.34616 | 1.17970 | 31244 ft | 492 kts | 149° |
| 2026-04-16 09:44 | 49.29015 | 1.24023 | 31230 ft | 492 kts | 149° |
| 2026-04-16 09:44 | 49.23416 | 1.30056 | 31245 ft | 492 kts | 149° |
| 2026-04-16 09:45 | 49.17816 | 1.36073 | 31248 ft | 492 kts | 149° |
| 2026-04-16 09:45 | 49.12214 | 1.42075 | 31251 ft | 491 kts | 149° |
| 2026-04-16 09:46 | 49.06621 | 1.48051 | 31223 ft | 491 kts | 149° |
| 2026-04-16 09:46 | 49.01037 | 1.54001 | 31244 ft | 490 kts | 149° |
| 2026-04-16 09:47 | 48.95449 | 1.59939 | 31248 ft | 489 kts | 149° |
| 2026-04-16 09:47 | 48.89861 | 1.65859 | 31246 ft | 489 kts | 149° |
| 2026-04-16 09:48 | 48.84274 | 1.71763 | 31242 ft | 489 kts | 149° |
| 2026-04-16 09:48 | 48.78685 | 1.77652 | 31245 ft | 489 kts | 149° |
| 2026-04-16 09:49 | 48.73094 | 1.83527 | 31250 ft | 489 kts | 149° |
| 2026-04-16 09:49 | 48.67539 | 1.89350 | 31258 ft | 489 kts | 149° |
| 2026-04-16 09:50 | 48.61948 | 1.95193 | 31252 ft | 488 kts | 149° |
| 2026-04-16 09:50 | 48.56353 | 2.01024 | 31258 ft | 489 kts | 149° |
| 2026-04-16 09:51 | 48.50753 | 2.06845 | 31248 ft | 489 kts | 149° |
| 2026-04-16 09:51 | 48.45150 | 2.12653 | 31273 ft | 489 kts | 149° |
| 2026-04-16 09:52 | 48.39537 | 2.18454 | 31284 ft | 489 kts | 149° |
| 2026-04-16 09:52 | 48.33925 | 2.24239 | 31288 ft | 489 kts | 149° |
| 2026-04-16 09:53 | 48.28125 | 2.29465 | 31277 ft | 483 kts | 160° |
| 2026-04-16 09:53 | 48.21809 | 2.32631 | 31291 ft | 477 kts | 170° |
| 2026-04-16 09:54 | 48.15382 | 2.35149 | 31281 ft | 477 kts | 169° |
| 2026-04-16 09:54 | 48.09022 | 2.38092 | 31284 ft | 479 kts | 166° |
| 2026-04-16 09:55 | 48.02693 | 2.41256 | 31286 ft | 480 kts | 166° |
| 2026-04-16 09:55 | 47.96360 | 2.44404 | 31288 ft | 479 kts | 165° |
| 2026-04-16 09:56 | 47.90025 | 2.47541 | 31287 ft | 480 kts | 166° |
| 2026-04-16 09:56 | 47.83691 | 2.50669 | 31287 ft | 480 kts | 166° |
| 2026-04-16 09:57 | 47.77349 | 2.53793 | 31274 ft | 480 kts | 165° |
| 2026-04-16 09:57 | 47.71004 | 2.56909 | 31285 ft | 480 kts | 165° |
| 2026-04-16 09:58 | 47.64709 | 2.59995 | 31281 ft | 480 kts | 165° |
| 2026-04-16 09:58 | 47.58364 | 2.63097 | 31286 ft | 480 kts | 165° |
| 2026-04-16 09:59 | 47.52016 | 2.66191 | 31285 ft | 480 kts | 165° |
| 2026-04-16 09:59 | 47.45669 | 2.69278 | 31282 ft | 480 kts | 165° |
| 2026-04-16 10:00 | 47.39321 | 2.72358 | 31282 ft | 480 kts | 165° |
| 2026-04-16 10:00 | 47.32974 | 2.75428 | 31282 ft | 480 kts | 165° |
| 2026-04-16 10:01 | 47.23455 | 2.80020 | 31280 ft | 480 kts | 165° |
| 2026-04-16 10:01 | 47.17111 | 2.83070 | 31280 ft | 480 kts | 165° |
| 2026-04-16 10:02 | 47.10768 | 2.86110 | 31285 ft | 479 kts | 165° |
| 2026-04-16 10:02 | 47.04425 | 2.89144 | 31287 ft | 479 kts | 165° |
| 2026-04-16 10:03 | 46.98079 | 2.92171 | 31290 ft | 479 kts | 165° |
| 2026-04-16 10:03 | 46.91775 | 2.95171 | 31280 ft | 479 kts | 165° |
| 2026-04-16 10:04 | 46.85430 | 2.98183 | 31287 ft | 480 kts | 165° |
| 2026-04-16 10:04 | 46.79073 | 3.01193 | 31286 ft | 480 kts | 165° |
| 2026-04-16 10:05 | 46.72721 | 3.04194 | 31284 ft | 480 kts | 165° |
| 2026-04-16 10:05 | 46.66358 | 3.07192 | 31288 ft | 480 kts | 165° |
| 2026-04-16 10:06 | 46.59998 | 3.10182 | 31287 ft | 480 kts | 165° |
| 2026-04-16 10:06 | 46.53635 | 3.13166 | 31288 ft | 480 kts | 165° |
| 2026-04-16 10:07 | 46.47344 | 3.16487 | 31284 ft | 481 kts | 161° |
| 2026-04-16 10:07 | 46.41123 | 3.19922 | 31284 ft | 481 kts | 162° |
| 2026-04-16 10:08 | 46.34852 | 3.23317 | 31310 ft | 481 kts | 162° |
| 2026-04-16 10:08 | 46.28572 | 3.26682 | 31319 ft | 481 kts | 162° |
| 2026-04-16 10:09 | 46.22295 | 3.30035 | 31326 ft | 481 kts | 162° |
| 2026-04-16 10:09 | 46.16020 | 3.33380 | 31325 ft | 481 kts | 162° |
| 2026-04-16 10:10 | 46.09752 | 3.36713 | 31321 ft | 480 kts | 162° |
| 2026-04-16 10:10 | 46.03481 | 3.40040 | 31314 ft | 480 kts | 162° |
| 2026-04-16 10:11 | 45.97211 | 3.43359 | 31304 ft | 480 kts | 162° |
| 2026-04-16 10:11 | 45.90938 | 3.46671 | 31275 ft | 480 kts | 162° |
| 2026-04-16 10:12 | 45.84643 | 3.49841 | 31279 ft | 479 kts | 165° |
| 2026-04-16 10:12 | 45.78262 | 3.52582 | 31275 ft | 479 kts | 165° |
| 2026-04-16 10:13 | 45.71887 | 3.55327 | 31261 ft | 479 kts | 165° |
| 2026-04-16 10:13 | 45.65545 | 3.58051 | 31259 ft | 479 kts | 165° |
| 2026-04-16 10:14 | 45.59152 | 3.60791 | 31258 ft | 480 kts | 165° |
| 2026-04-16 10:14 | 45.52757 | 3.63526 | 31258 ft | 480 kts | 165° |
| 2026-04-16 10:15 | 45.46345 | 3.66260 | 31253 ft | 481 kts | 165° |
| 2026-04-16 10:15 | 45.39933 | 3.68989 | 31253 ft | 481 kts | 165° |
| 2026-04-16 10:16 | 45.33524 | 3.71709 | 31252 ft | 481 kts | 165° |
| 2026-04-16 10:16 | 45.27273 | 3.75069 | 31268 ft | 483 kts | 150° |
| 2026-04-16 10:17 | 45.24555 | 3.77876 | 31273 ft | 484 kts | 137° |
| 2026-04-16 10:17 | 45.22285 | 3.81392 | 31292 ft | 483 kts | 126° |
| 2026-04-16 10:17 | 45.18792 | 3.89523 | 31291 ft | 483 kts | 118° |
| 2026-04-16 10:18 | 45.15349 | 3.97706 | 31283 ft | 483 kts | 121° |
| 2026-04-16 10:18 | 45.11738 | 4.05740 | 31262 ft | 483 kts | 122° |
| 2026-04-16 10:19 | 45.08082 | 4.13710 | 31276 ft | 483 kts | 122° |
| 2026-04-16 10:19 | 45.04413 | 4.21672 | 31251 ft | 483 kts | 123° |
| 2026-04-16 10:20 | 45.00113 | 4.28975 | 31241 ft | 484 kts | 131° |
| 2026-04-16 10:20 | 44.95584 | 4.35919 | 31224 ft | 484 kts | 131° |
| 2026-04-16 10:21 | 44.91033 | 4.42903 | 31224 ft | 482 kts | 131° |
| 2026-04-16 10:21 | 44.86477 | 4.49875 | 31210 ft | 483 kts | 131° |
| 2026-04-16 10:22 | 44.82691 | 4.55658 | 31208 ft | 483 kts | 131° |
| 2026-04-16 10:22 | 44.78135 | 4.62601 | 31200 ft | 483 kts | 131° |
| 2026-04-16 10:23 | 44.73575 | 4.69533 | 31193 ft | 483 kts | 131° |
| 2026-04-16 10:23 | 44.69005 | 4.76462 | 31197 ft | 484 kts | 131° |
| 2026-04-16 10:24 | 44.64423 | 4.83392 | 31208 ft | 484 kts | 131° |
| 2026-04-16 10:24 | 44.59940 | 4.90414 | 31181 ft | 481 kts | 129° |
| 2026-04-16 10:25 | 44.55539 | 4.97527 | 31172 ft | 481 kts | 130° |
| 2026-04-16 10:25 | 44.51137 | 5.04571 | 31160 ft | 481 kts | 130° |
| 2026-04-16 10:26 | 44.46723 | 5.11586 | 31154 ft | 480 kts | 130° |
| 2026-04-16 10:26 | 44.42297 | 5.18573 | 31148 ft | 480 kts | 133° |
| 2026-04-16 10:27 | 44.39794 | 5.21647 | 31031 ft | 479 kts | 144° |
| 2026-04-16 10:27 | 44.36926 | 5.23982 | 30592 ft | 477 kts | 156° |
| 2026-04-16 10:27 | 44.33805 | 5.25459 | 30015 ft | 471 kts | 169° |
| 2026-04-16 10:27 | 44.30581 | 5.25997 | 29445 ft | 463 kts | 181° |
| 2026-04-16 10:28 | 44.27399 | 5.25694 | 28866 ft | 455 kts | 187° |
| 2026-04-16 10:28 | 44.24247 | 5.25557 | 28191 ft | 453 kts | 178° |
| 2026-04-16 10:28 | 44.21136 | 5.26201 | 27575 ft | 451 kts | 167° |
| 2026-04-16 10:28 | 44.18146 | 5.27459 | 26968 ft | 449 kts | 161° |
| 2026-04-16 10:29 | 44.15256 | 5.29062 | 26370 ft | 445 kts | 157° |
| 2026-04-16 10:29 | 44.12437 | 5.30808 | 25836 ft | 441 kts | 156° |
| 2026-04-16 10:29 | 44.09663 | 5.32587 | 25267 ft | 437 kts | 155° |
| 2026-04-16 10:29 | 44.06917 | 5.34356 | 24754 ft | 433 kts | 155° |
| 2026-04-16 10:30 | 44.04192 | 5.36102 | 24204 ft | 430 kts | 155° |
| 2026-04-16 10:30 | 44.01479 | 5.37829 | 23640 ft | 427 kts | 155° |
| 2026-04-16 10:30 | 43.98785 | 5.39538 | 23049 ft | 424 kts | 155° |
| 2026-04-16 10:30 | 43.96117 | 5.41227 | 22487 ft | 419 kts | 155° |
| 2026-04-16 10:31 | 43.93476 | 5.42897 | 21920 ft | 415 kts | 155° |
| 2026-04-16 10:31 | 43.90978 | 5.44842 | 21356 ft | 411 kts | 142° |
| 2026-04-16 10:31 | 43.88984 | 5.47629 | 20787 ft | 406 kts | 124° |
| 2026-04-16 10:31 | 43.87591 | 5.50995 | 20236 ft | 401 kts | 114° |
| 2026-04-16 10:32 | 43.86445 | 5.54498 | 19707 ft | 397 kts | 112° |
| 2026-04-16 10:32 | 43.85334 | 5.57983 | 19193 ft | 394 kts | 112° |
| 2026-04-16 10:32 | 43.84234 | 5.61443 | 18692 ft | 391 kts | 112° |
| 2026-04-16 10:32 | 43.83013 | 5.64787 | 18137 ft | 389 kts | 123° |
| 2026-04-16 10:33 | 43.81473 | 5.67846 | 17563 ft | 386 kts | 124° |
| 2026-04-16 10:33 | 43.79939 | 5.70872 | 17018 ft | 383 kts | 124° |
| 2026-04-16 10:33 | 43.78410 | 5.73867 | 16502 ft | 379 kts | 124° |
| 2026-04-16 10:33 | 43.76904 | 5.76796 | 16386 ft | 373 kts | 124° |
| 2026-04-16 10:34 | 43.75377 | 5.79754 | 16317 ft | 380 kts | 124° |
| 2026-04-16 10:34 | 43.73845 | 5.82715 | 16222 ft | 377 kts | 124° |
| 2026-04-16 10:34 | 43.72325 | 5.85647 | 16125 ft | 375 kts | 124° |
| 2026-04-16 10:34 | 43.70797 | 5.88590 | 16121 ft | 378 kts | 124° |
| 2026-04-16 10:35 | 43.69265 | 5.91540 | 16124 ft | 378 kts | 124° |
| 2026-04-16 10:35 | 43.67752 | 5.94449 | 16126 ft | 378 kts | 124° |
| 2026-04-16 10:35 | 43.66218 | 5.97395 | 16123 ft | 378 kts | 124° |
| 2026-04-16 10:35 | 43.64682 | 6.00342 | 16123 ft | 378 kts | 124° |
| 2026-04-16 10:36 | 43.63145 | 6.03288 | 16124 ft | 378 kts | 124° |
| 2026-04-16 10:36 | 43.61609 | 6.06230 | 16125 ft | 378 kts | 124° |
| 2026-04-16 10:36 | 43.60118 | 6.09214 | 16126 ft | 377 kts | 119° |
| 2026-04-16 10:36 | 43.58931 | 6.12435 | 16130 ft | 375 kts | 111° |
| 2026-04-16 10:37 | 43.58025 | 6.15741 | 16081 ft | 362 kts | 109° |
| 2026-04-16 10:37 | 43.57157 | 6.18932 | 15965 ft | 349 kts | 109° |
| 2026-04-16 10:37 | 43.56312 | 6.22007 | 15839 ft | 336 kts | 109° |
| 2026-04-16 10:37 | 43.55492 | 6.24982 | 15506 ft | 331 kts | 109° |
| 2026-04-16 10:38 | 43.54675 | 6.27946 | 15059 ft | 330 kts | 109° |
| 2026-04-16 10:38 | 43.53858 | 6.30911 | 14584 ft | 331 kts | 109° |
| 2026-04-16 10:38 | 43.53037 | 6.33882 | 14105 ft | 332 kts | 109° |
| 2026-04-16 10:38 | 43.52214 | 6.36858 | 13602 ft | 332 kts | 109° |
| 2026-04-16 10:39 | 43.51401 | 6.39796 | 13362 ft | 323 kts | 109° |
| 2026-04-16 10:39 | 43.50509 | 6.42602 | 12972 ft | 320 kts | 118° |
| 2026-04-16 10:39 | 43.49243 | 6.45093 | 12695 ft | 314 kts | 130° |
| 2026-04-16 10:39 | 43.47750 | 6.47252 | 12384 ft | 308 kts | 133° |
| 2026-04-16 10:40 | 43.46292 | 6.49339 | 12048 ft | 297 kts | 132° |
| 2026-04-16 10:40 | 43.44887 | 6.51366 | 11657 ft | 289 kts | 132° |
| 2026-04-16 10:40 | 43.43513 | 6.53350 | 11244 ft | 283 kts | 132° |
| 2026-04-16 10:40 | 43.42171 | 6.55285 | 10830 ft | 277 kts | 132° |
| 2026-04-16 10:41 | 43.40851 | 6.57187 | 10415 ft | 272 kts | 132° |
| 2026-04-16 10:41 | 43.39552 | 6.59061 | 10002 ft | 268 kts | 130° |
| 2026-04-16 10:41 | 43.38632 | 6.61218 | 9458 ft | 261 kts | 103° |
| 2026-04-16 10:41 | 43.38491 | 6.63681 | 8876 ft | 259 kts | 87° |
| 2026-04-16 10:42 | 43.38550 | 6.66168 | 8295 ft | 261 kts | 87° |
| 2026-04-16 10:42 | 43.38606 | 6.68672 | 7721 ft | 263 kts | 87° |
| 2026-04-16 10:42 | 43.38656 | 6.71186 | 7163 ft | 263 kts | 88° |
| 2026-04-16 10:42 | 43.38702 | 6.73713 | 6608 ft | 265 kts | 88° |
| 2026-04-16 10:43 | 43.38747 | 6.76248 | 6029 ft | 265 kts | 88° |
| 2026-04-16 10:43 | 43.38790 | 6.78753 | 5461 ft | 265 kts | 88° |
| 2026-04-16 10:43 | 43.38833 | 6.81318 | 4881 ft | 265 kts | 89° |
| 2026-04-16 10:43 | 43.39102 | 6.83783 | 4501 ft | 255 kts | 68° |
| 2026-04-16 10:44 | 43.39947 | 6.85809 | 4403 ft | 235 kts | 52° |
| 2026-04-16 10:44 | 43.40955 | 6.87445 | 4355 ft | 214 kts | 47° |
| 2026-04-16 10:44 | 43.41951 | 6.88839 | 4227 ft | 201 kts | 45° |
| 2026-04-16 10:44 | 43.42930 | 6.90163 | 4125 ft | 196 kts | 44° |
| 2026-04-16 10:45 | 43.43946 | 6.91540 | 4130 ft | 205 kts | 45° |
| 2026-04-16 10:45 | 43.44911 | 6.92848 | 4124 ft | 185 kts | 45° |
| 2026-04-16 10:45 | 43.45789 | 6.94039 | 4125 ft | 164 kts | 45° |
| 2026-04-16 10:45 | 43.46542 | 6.95060 | 4127 ft | 142 kts | 45° |
| 2026-04-16 10:46 | 43.47263 | 6.96039 | 4128 ft | 148 kts | 45° |
| 2026-04-16 10:46 | 43.47979 | 6.97011 | 4134 ft | 146 kts | 45° |
| 2026-04-16 10:46 | 43.48697 | 6.97986 | 4132 ft | 145 kts | 45° |
| 2026-04-16 10:46 | 43.49415 | 6.98960 | 4132 ft | 145 kts | 45° |
| 2026-04-16 10:47 | 43.50137 | 6.99941 | 4057 ft | 145 kts | 45° |
| 2026-04-16 10:47 | 43.50860 | 7.00922 | 3870 ft | 145 kts | 45° |
| 2026-04-16 10:47 | 43.51575 | 7.01894 | 3691 ft | 145 kts | 44° |
| 2026-04-16 10:47 | 43.52293 | 7.02869 | 3508 ft | 145 kts | 44° |
| 2026-04-16 10:48 | 43.53007 | 7.03840 | 3335 ft | 144 kts | 44° |
| 2026-04-16 10:48 | 43.53722 | 7.04811 | 3135 ft | 144 kts | 44° |
| 2026-04-16 10:48 | 43.54431 | 7.05776 | 2944 ft | 143 kts | 44° |
| 2026-04-16 10:48 | 43.55140 | 7.06740 | 2757 ft | 143 kts | 44° |
| 2026-04-16 10:49 | 43.55846 | 7.07701 | 2568 ft | 143 kts | 44° |
| 2026-04-16 10:49 | 43.56553 | 7.08662 | 2381 ft | 143 kts | 44° |
| 2026-04-16 10:49 | 43.57258 | 7.09623 | 2197 ft | 143 kts | 44° |
| 2026-04-16 10:49 | 43.57969 | 7.10590 | 1996 ft | 142 kts | 44° |
| 2026-04-16 10:50 | 43.58669 | 7.11544 | 1812 ft | 142 kts | 44° |
| 2026-04-16 10:50 | 43.59373 | 7.12503 | 1616 ft | 142 kts | 44° |
| 2026-04-16 10:50 | 43.60059 | 7.13436 | 1431 ft | 141 kts | 44° |
| 2026-04-16 10:50 | 43.60755 | 7.14385 | 1242 ft | 141 kts | 44° |
| 2026-04-16 10:51 | 43.61466 | 7.15355 | 1077 ft | 146 kts | 45° |
| 2026-04-16 10:51 | 43.62185 | 7.16335 | 867 ft | 144 kts | 46° |
| 2026-04-16 10:51 | 43.62893 | 7.17300 | 677 ft | 144 kts | 46° |
| 2026-04-16 10:51 | 43.63606 | 7.18273 | 497 ft | 145 kts | 46° |
| 2026-04-16 10:52 | 43.64319 | 7.19245 | 301 ft | 142 kts | 46° |
| 2026-04-16 10:52 | 43.65026 | 7.20211 | 116 ft | 144 kts | 47° |
| 2026-04-16 10:52 | 43.65717 | 7.21159 | 25 ft | 126 kts | 44° |
| 2026-04-16 10:52 | 43.66199 | 7.21812 | 22 ft | 68 kts | 44° |
| 2026-04-16 10:53 | 43.66437 | 7.22133 | 22 ft | 41 kts | 43° |
| 2026-04-16 10:53 | 43.66598 | 7.22351 | 20 ft | 18 kts | 45° |
| 2026-04-16 10:53 | 43.66697 | 7.22482 | 21 ft | 21 kts | 36° |
| 2026-04-16 10:53 | 43.66781 | 7.22468 | 20 ft | 8 kts | 287° |
| 2026-04-16 10:54 | 43.66819 | 7.22379 | 21 ft | 13 kts | 287° |
| 2026-04-16 10:54 | 43.66776 | 7.22286 | 21 ft | 13 kts | 225° |
| 2026-04-16 10:54 | 43.66708 | 7.22189 | 21 ft | 15 kts | 226° |
| 2026-04-16 10:54 | 43.66631 | 7.22078 | 21 ft | 17 kts | 226° |
| 2026-04-16 10:55 | 43.66544 | 7.21956 | 21 ft | 19 kts | 225° |
| 2026-04-16 10:55 | 43.66449 | 7.21823 | 21 ft | 20 kts | 225° |
| 2026-04-16 10:55 | 43.66344 | 7.21683 | 21 ft | 22 kts | 224° |
| 2026-04-16 10:55 | 43.66234 | 7.21532 | 21 ft | 23 kts | 225° |
| 2026-04-16 10:56 | 43.66118 | 7.21374 | 21 ft | 24 kts | 224° |
| 2026-04-16 10:56 | 43.65998 | 7.21208 | 21 ft | 25 kts | 224° |
| 2026-04-16 10:56 | 43.65987 | 7.21046 | 21 ft | 20 kts | 346° |
| 2026-04-16 10:56 | 43.65993 | 7.20940 | 21 ft | 14 kts | 228° |
| 2026-04-16 10:57 | 43.65921 | 7.20838 | 21 ft | 16 kts | 220° |
| 2026-04-16 10:57 | 43.65835 | 7.20734 | 21 ft | 17 kts | 227° |
| 2026-04-16 10:57 | 43.65845 | 7.20642 | 21 ft | 8 kts | 332° |
| 2026-04-16 10:57 | 43.65878 | 7.20608 | 21 ft | 0 kts | 324° |
| 2026-04-16 10:58 | 43.65879 | 7.20607 | 21 ft | 0 kts | 324° |
| 2026-04-16 11:07 | 43.65836 | 7.20584 | 24 ft | 0 kts | 326° |